createdAt,value
2023-08-06T00:01:13.010Z,15.10
2023-08-06T00:03:41.977Z,14.52
2023-08-06T00:06:10.045Z,14.40
2023-08-06T00:08:37.514Z,14.10
2023-08-06T00:11:04.851Z,13.70
2023-08-06T00:13:32.240Z,14.13
2023-08-06T00:16:19.723Z,15.00
2023-08-06T00:18:47.194Z,14.82
2023-08-06T00:21:14.652Z,15.50
2023-08-06T00:23:42.765Z,16.73
2023-08-06T00:26:10.031Z,16.33
2023-08-06T00:28:37.421Z,15.95
2023-08-06T00:31:04.836Z,15.93
2023-08-06T00:33:32.232Z,16.27
2023-08-06T00:35:59.514Z,16.17
2023-08-06T00:38:26.820Z,17.50
2023-08-06T00:40:54.623Z,16.85
2023-08-06T00:43:22.040Z,17.25
2023-08-06T00:45:49.552Z,17.42
2023-08-06T00:48:17.738Z,16.65
2023-08-06T00:50:45.140Z,16.50
2023-08-06T00:53:12.577Z,17.20
2023-08-06T00:55:43.214Z,18.48
2023-08-06T00:58:11.212Z,17.77
2023-08-06T01:00:39.225Z,17.55
2023-08-06T01:03:06.667Z,16.55
2023-08-06T01:05:34.254Z,15.77
2023-08-06T01:08:20.677Z,15.32
2023-08-06T01:11:10.985Z,15.00
2023-08-06T01:13:50.834Z,14.23
2023-08-06T01:16:25.370Z,14.40
2023-08-06T01:18:52.935Z,13.27
2023-08-06T01:21:20.672Z,14.30
2023-08-06T01:23:49.177Z,12.80
2023-08-06T01:26:34.548Z,13.43
2023-08-06T01:29:18.387Z,13.75
2023-08-06T01:31:49.635Z,13.75
2023-08-06T01:34:29.108Z,13.93
2023-08-06T01:36:57.313Z,13.68
2023-08-06T01:39:24.809Z,14.05
2023-08-06T01:41:52.433Z,13.82
2023-08-06T01:44:20.154Z,13.65
2023-08-06T01:46:47.614Z,13.70
2023-08-06T01:49:14.913Z,14.65
2023-08-06T01:51:42.303Z,13.68
2023-08-06T01:54:09.714Z,14.65
2023-08-06T01:56:37.105Z,14.15
2023-08-06T01:59:05.485Z,14.73
2023-08-06T02:01:33.212Z,14.60
2023-08-06T02:04:00.723Z,14.65
2023-08-06T02:06:28.080Z,14.13
2023-08-06T02:08:56.275Z,14.52
2023-08-06T02:11:23.521Z,14.48
2023-08-06T02:13:50.930Z,13.57
2023-08-06T02:16:19.969Z,13.60
2023-08-06T02:18:47.378Z,12.75
2023-08-06T02:21:14.672Z,13.68
2023-08-06T02:23:41.957Z,13.07
2023-08-06T02:26:11.379Z,12.40
2023-08-06T02:28:38.822Z,12.00
2023-08-06T02:31:08.100Z,11.60
2023-08-06T02:33:38.250Z,11.95
2023-08-06T02:36:06.104Z,10.88
2023-08-06T02:38:34.154Z,11.35
2023-08-06T02:41:05.456Z,11.57
2023-08-06T02:43:33.348Z,11.00
2023-08-06T02:46:01.658Z,10.95
2023-08-06T02:48:29.599Z,11.85
2023-08-06T02:51:00.946Z,11.55
2023-08-06T02:53:30.479Z,10.57
2023-08-06T02:56:00.238Z,11.48
2023-08-06T02:58:35.693Z,10.32
2023-08-06T03:01:15.989Z,11.35
2023-08-06T03:03:49.546Z,10.57
2023-08-06T03:06:23.454Z,10.90
2023-08-06T03:08:54.380Z,10.60
2023-08-06T03:11:21.871Z,10.63
2023-08-06T03:13:52.408Z,10.18
2023-08-06T03:16:19.880Z,10.38
2023-08-06T03:18:47.266Z,9.77
2023-08-06T03:21:15.368Z,9.98
2023-08-06T03:23:43.491Z,9.90
2023-08-06T03:26:11.012Z,10.05
2023-08-06T03:28:39.100Z,10.10
2023-08-06T03:31:06.967Z,8.98
2023-08-06T03:33:42.207Z,9.32
2023-08-06T03:36:14.575Z,9.23
2023-08-06T03:38:43.141Z,9.53
2023-08-06T03:41:12.907Z,9.48
2023-08-06T03:43:40.723Z,8.88
2023-08-06T03:46:12.392Z,9.13
2023-08-06T03:48:39.902Z,9.95
2023-08-06T03:51:07.223Z,9.98
2023-08-06T03:53:35.243Z,9.38
2023-08-06T03:56:03.677Z,9.18
2023-08-06T03:58:32.105Z,9.40
2023-08-06T04:01:01.153Z,9.35
2023-08-06T04:03:32.910Z,9.45
2023-08-06T04:06:02.272Z,9.18
2023-08-06T04:08:29.702Z,9.45
2023-08-06T04:10:57.671Z,9.10
2023-08-06T04:13:25.084Z,9.45
2023-08-06T04:15:52.469Z,9.55
2023-08-06T04:18:20.408Z,9.02
2023-08-06T04:20:50.621Z,10.85
2023-08-06T04:23:18.109Z,9.52
2023-08-06T04:25:45.601Z,9.60
2023-08-06T04:28:14.486Z,8.98
2023-08-06T04:30:41.886Z,9.10
2023-08-06T04:33:09.825Z,9.02
2023-08-06T04:35:37.181Z,8.65
2023-08-06T04:38:04.668Z,10.15
2023-08-06T04:40:35.321Z,9.15
2023-08-06T04:43:02.851Z,9.82
2023-08-06T04:45:33.320Z,9.60
2023-08-06T04:48:00.677Z,9.32
2023-08-06T04:50:28.057Z,9.00
2023-08-06T04:52:55.667Z,9.13
2023-08-06T04:55:23.067Z,9.57
2023-08-06T04:57:50.370Z,9.35
2023-08-06T05:00:17.787Z,9.23
2023-08-06T05:02:45.340Z,9.27
2023-08-06T05:05:12.824Z,9.20
2023-08-06T05:07:40.246Z,9.20
2023-08-06T05:10:08.145Z,9.52
2023-08-06T05:12:35.624Z,9.90
2023-08-06T05:15:03.032Z,9.50
2023-08-06T05:17:30.615Z,9.82
2023-08-06T05:19:58.100Z,9.90
2023-08-06T05:22:25.547Z,9.15
2023-08-06T05:24:52.965Z,9.52
2023-08-06T05:27:20.319Z,9.77
2023-08-06T05:29:49.212Z,9.05
2023-08-06T05:32:16.567Z,9.43
2023-08-06T05:34:43.903Z,9.07
2023-08-06T05:37:11.257Z,9.15
2023-08-06T05:39:38.621Z,10.30
2023-08-06T05:42:06.500Z,9.10
2023-08-06T05:44:34.070Z,8.75
2023-08-06T05:47:01.448Z,8.68
2023-08-06T05:49:29.061Z,10.27
2023-08-06T05:51:56.487Z,8.40
2023-08-06T05:54:23.878Z,7.90
2023-08-06T05:56:51.231Z,8.55
2023-08-06T05:59:18.581Z,8.35
2023-08-06T06:01:45.988Z,7.70
2023-08-06T06:04:13.347Z,7.72
2023-08-06T06:06:42.773Z,8.10
2023-08-06T06:09:10.162Z,7.45
2023-08-06T06:11:37.791Z,7.85
2023-08-06T06:14:05.081Z,7.88
2023-08-06T06:16:32.408Z,8.27
2023-08-06T06:18:59.732Z,8.43
2023-08-06T06:21:27.080Z,7.82
2023-08-06T06:23:54.527Z,8.30
2023-08-06T06:26:21.899Z,8.27
2023-08-06T06:28:49.336Z,8.20
2023-08-06T06:31:16.684Z,8.40
2023-08-06T06:33:44.070Z,8.27
2023-08-06T06:36:11.865Z,7.85
2023-08-06T06:38:39.735Z,7.95
2023-08-06T06:41:07.076Z,8.85
2023-08-06T06:43:34.302Z,9.40
2023-08-06T06:46:01.961Z,8.95
2023-08-06T06:48:33.668Z,8.43
2023-08-06T06:51:01.333Z,7.35
2023-08-06T06:53:29.862Z,7.72
2023-08-06T06:56:05.140Z,7.53
2023-08-06T06:58:33.464Z,7.55
2023-08-06T07:01:01.074Z,8.20
2023-08-06T07:03:29.012Z,7.03
2023-08-06T07:06:00.257Z,7.72
2023-08-06T07:08:27.863Z,7.60
2023-08-06T07:11:06.025Z,7.40
2023-08-06T07:13:36.182Z,7.63
2023-08-06T07:16:04.228Z,7.50
2023-08-06T07:18:31.703Z,7.53
2023-08-06T07:20:58.935Z,7.57
2023-08-06T07:23:27.239Z,7.40
2023-08-06T07:25:54.712Z,9.80
2023-08-06T07:28:22.088Z,7.32
2023-08-06T07:30:49.521Z,9.10
2023-08-06T07:33:17.099Z,7.10
2023-08-06T07:35:44.619Z,7.40
2023-08-06T07:38:11.999Z,7.35
2023-08-06T07:40:40.263Z,7.35
2023-08-06T07:43:07.747Z,6.97
2023-08-06T07:45:36.786Z,6.03
2023-08-06T07:48:04.614Z,6.55
2023-08-06T07:50:32.402Z,6.47
2023-08-06T07:52:59.820Z,6.38
2023-08-06T07:55:27.182Z,6.32
2023-08-06T07:57:55.128Z,6.25
2023-08-06T08:00:22.587Z,6.45
2023-08-06T08:02:49.950Z,6.05
2023-08-06T08:05:17.785Z,5.90
2023-08-06T08:07:45.575Z,6.15
2023-08-06T08:10:12.938Z,6.25
2023-08-06T08:12:40.399Z,6.38
2023-08-06T08:15:08.079Z,6.07
2023-08-06T08:17:36.000Z,9.85
2023-08-06T08:20:04.237Z,5.95
2023-08-06T08:22:31.924Z,5.70
2023-08-06T08:24:59.354Z,5.43
2023-08-06T08:27:27.423Z,5.45
2023-08-06T08:29:54.822Z,6.13
2023-08-06T08:32:22.049Z,5.05
2023-08-06T08:34:49.295Z,5.68
2023-08-06T08:37:16.776Z,5.10
2023-08-06T08:39:44.195Z,5.90
2023-08-06T08:42:11.926Z,5.45
2023-08-06T08:44:40.775Z,5.25
2023-08-06T08:47:10.381Z,5.40
2023-08-06T08:49:39.456Z,4.93
2023-08-06T08:52:07.794Z,4.82
2023-08-06T08:54:40.191Z,5.75
2023-08-06T08:57:07.531Z,5.32
2023-08-06T08:59:35.370Z,5.68
2023-08-06T09:02:03.312Z,5.43
2023-08-06T09:04:36.873Z,4.90
2023-08-06T09:07:07.247Z,4.65
2023-08-06T09:09:38.994Z,4.85
2023-08-06T09:12:15.105Z,5.43
2023-08-06T09:14:43.169Z,5.10
2023-08-06T09:17:13.894Z,5.20
2023-08-06T09:19:49.349Z,5.05
2023-08-06T09:22:16.913Z,5.25
2023-08-06T09:24:44.486Z,4.90
2023-08-06T09:27:15.570Z,5.22
2023-08-06T09:29:44.498Z,4.95
2023-08-06T09:32:15.012Z,5.10
2023-08-06T09:34:45.306Z,4.60
2023-08-06T09:37:12.802Z,4.57
2023-08-06T09:39:44.311Z,4.88
2023-08-06T09:42:11.666Z,4.82
2023-08-06T09:44:42.181Z,5.85
2023-08-06T09:47:09.557Z,4.60
2023-08-06T09:49:36.771Z,4.50
2023-08-06T09:52:05.193Z,4.53
2023-08-06T09:54:35.550Z,4.57
2023-08-06T09:57:03.521Z,4.22
2023-08-06T09:59:31.228Z,4.40
2023-08-06T10:01:59.271Z,4.60
2023-08-06T10:04:30.977Z,5.27
2023-08-06T10:07:06.083Z,4.85
2023-08-06T10:09:33.385Z,4.93
2023-08-06T10:12:02.263Z,4.68
2023-08-06T10:17:00.870Z,4.90
2023-08-06T10:19:28.756Z,5.28
2023-08-06T10:22:13.915Z,4.57
2023-08-06T10:24:58.601Z,5.10
2023-08-06T10:27:35.223Z,5.18
2023-08-06T10:30:45.274Z,4.50
2023-08-06T10:33:13.033Z,4.65
2023-08-06T10:35:45.304Z,5.13
2023-08-06T10:38:20.090Z,4.93
2023-08-06T10:41:11.433Z,5.30
2023-08-06T10:43:44.664Z,4.10
2023-08-06T10:46:22.211Z,4.75
2023-08-06T10:48:50.557Z,4.30
2023-08-06T10:51:18.162Z,3.88
2023-08-06T10:53:47.726Z,4.50
2023-08-06T10:56:15.548Z,4.30
2023-08-06T10:58:43.931Z,4.13
2023-08-06T11:01:12.583Z,4.85
2023-08-06T11:03:40.982Z,4.60
2023-08-06T11:06:09.278Z,4.20
2023-08-06T11:08:48.092Z,4.32
2023-08-06T11:13:47.716Z,4.30
2023-08-06T11:16:21.146Z,4.05
2023-08-06T11:18:48.998Z,4.25
2023-08-06T11:21:20.547Z,4.63
2023-08-06T11:23:47.990Z,3.95
2023-08-06T11:26:21.117Z,4.30
2023-08-06T11:28:48.613Z,4.90
2023-08-06T11:31:23.211Z,5.50
2023-08-06T11:33:55.279Z,5.22
2023-08-06T11:36:33.405Z,5.60
2023-08-06T11:39:01.839Z,4.97
2023-08-06T11:41:30.660Z,5.10
2023-08-06T11:43:58.293Z,4.70
2023-08-06T11:46:26.629Z,6.13
2023-08-06T11:48:58.510Z,6.47
2023-08-06T11:51:29.490Z,7.05
2023-08-06T11:54:00.791Z,7.43
2023-08-06T11:56:29.023Z,6.75
2023-08-06T11:58:56.841Z,6.75
2023-08-06T12:01:24.359Z,6.28
2023-08-06T12:03:51.743Z,5.80
2023-08-06T12:06:19.265Z,5.65
2023-08-06T12:08:46.586Z,5.40
2023-08-06T12:11:13.895Z,5.00
2023-08-06T12:13:41.283Z,5.05
2023-08-06T12:16:08.486Z,5.88
2023-08-06T12:18:35.859Z,5.43
2023-08-06T12:21:03.195Z,5.93
2023-08-06T12:23:31.011Z,6.32
2023-08-06T12:25:59.710Z,6.65
2023-08-06T12:28:26.976Z,7.00
2023-08-06T12:30:56.545Z,6.72
2023-08-06T12:33:23.874Z,5.72
2023-08-06T12:35:51.223Z,4.97
2023-08-06T12:38:18.491Z,5.13
2023-08-06T12:40:48.958Z,4.50
2023-08-06T12:43:16.250Z,4.50
2023-08-06T12:45:43.467Z,4.47
2023-08-06T12:48:10.881Z,3.85
2023-08-06T12:50:38.261Z,4.10
2023-08-06T12:53:06.732Z,4.15
2023-08-06T12:55:34.121Z,4.22
2023-08-06T12:58:01.454Z,4.43
2023-08-06T13:00:28.914Z,4.20
2023-08-06T13:02:56.910Z,3.95
2023-08-06T13:05:24.641Z,3.77
2023-08-06T13:07:52.053Z,4.50
2023-08-06T13:10:19.614Z,4.40
2023-08-06T13:12:47.208Z,3.67
2023-08-06T13:15:15.890Z,3.80
2023-08-06T13:17:43.204Z,3.63
2023-08-06T13:20:11.517Z,3.50
2023-08-06T13:22:39.060Z,3.63
2023-08-06T13:25:06.567Z,3.75
2023-08-06T13:27:33.933Z,3.80
2023-08-06T13:30:01.484Z,3.45
2023-08-06T13:32:29.892Z,3.63
2023-08-06T13:34:57.172Z,3.70
2023-08-06T13:37:24.571Z,4.03
2023-08-06T13:39:51.768Z,3.83
2023-08-06T13:42:19.127Z,3.95
2023-08-06T13:44:46.387Z,3.85
2023-08-06T13:47:13.587Z,4.07
2023-08-06T13:49:40.985Z,3.95
2023-08-06T13:52:20.090Z,3.70
2023-08-06T13:54:49.681Z,6.32
2023-08-06T13:57:18.655Z,4.30
2023-08-06T13:59:46.413Z,4.03
2023-08-06T14:02:13.821Z,4.90
2023-08-06T14:04:41.716Z,4.40
2023-08-06T14:07:09.288Z,5.10
2023-08-06T14:09:36.617Z,4.90
2023-08-06T14:12:04.481Z,4.18
2023-08-06T14:14:32.519Z,4.40
2023-08-06T14:17:00.278Z,4.10
2023-08-06T14:19:31.075Z,4.23
2023-08-06T14:21:58.769Z,4.38
2023-08-06T14:24:26.114Z,4.30
2023-08-06T14:26:53.730Z,4.57
2023-08-06T14:29:21.506Z,4.85
2023-08-06T14:31:48.749Z,4.38
2023-08-06T14:34:16.282Z,4.65
2023-08-06T14:36:43.826Z,4.32
2023-08-06T14:39:11.163Z,4.82
2023-08-06T14:41:38.363Z,5.15
2023-08-06T14:44:05.605Z,5.00
2023-08-06T14:46:32.886Z,5.70
2023-08-06T14:49:00.113Z,5.90
2023-08-06T14:51:27.421Z,6.15
2023-08-06T14:53:54.705Z,7.13
2023-08-06T14:56:22.010Z,7.05
2023-08-06T14:58:49.305Z,6.65
2023-08-06T15:01:16.556Z,6.28
2023-08-06T15:03:43.822Z,6.15
2023-08-06T15:06:16.446Z,6.55
2023-08-06T15:08:46.588Z,6.78
2023-08-06T15:11:17.056Z,6.57
2023-08-06T15:13:44.458Z,6.20
2023-08-06T15:16:11.696Z,5.95
2023-08-06T15:18:39.066Z,7.15
2023-08-06T15:21:06.303Z,6.18
2023-08-06T15:23:33.561Z,5.90
2023-08-06T15:26:00.928Z,5.30
2023-08-06T15:28:28.222Z,5.30
2023-08-06T15:30:57.260Z,6.13
2023-08-06T15:33:24.607Z,5.68
2023-08-06T15:35:51.863Z,6.00
2023-08-06T15:38:19.091Z,5.70
2023-08-06T15:40:46.710Z,5.65
2023-08-06T15:43:14.590Z,5.53
2023-08-06T15:45:41.806Z,5.60
2023-08-06T15:48:10.391Z,5.70
2023-08-06T15:50:39.454Z,5.53
2023-08-06T15:53:07.784Z,5.47
2023-08-06T15:55:38.617Z,5.10
2023-08-06T15:58:06.508Z,4.85
2023-08-06T16:00:34.580Z,5.22
2023-08-06T16:03:03.559Z,5.50
2023-08-06T16:05:32.291Z,5.25
2023-08-06T16:08:00.461Z,4.95
2023-08-06T16:10:28.084Z,4.90
2023-08-06T16:12:55.388Z,5.18
2023-08-06T16:15:22.697Z,4.95
2023-08-06T16:17:51.534Z,5.60
2023-08-06T16:20:19.106Z,4.82
2023-08-06T16:22:46.389Z,4.82
2023-08-06T16:25:14.481Z,4.97
2023-08-06T16:27:42.079Z,5.10
2023-08-06T16:30:10.026Z,5.18
2023-08-06T16:32:38.425Z,8.50
2023-08-06T16:35:08.014Z,8.27
2023-08-06T16:37:35.416Z,5.25
2023-08-06T16:40:05.051Z,6.55
2023-08-06T16:42:32.480Z,5.15
2023-08-06T16:44:59.711Z,5.50
2023-08-06T16:47:26.947Z,4.97
2023-08-06T16:49:54.507Z,6.07
2023-08-06T16:52:21.987Z,5.65
2023-08-06T16:54:50.378Z,5.10
2023-08-06T16:57:17.742Z,5.50
2023-08-06T16:59:45.042Z,5.80
2023-08-06T17:02:12.642Z,5.60
2023-08-06T17:04:39.990Z,5.68
2023-08-06T17:07:07.283Z,5.50
2023-08-06T17:09:34.659Z,5.25
2023-08-06T17:12:01.980Z,5.50
2023-08-06T17:14:29.387Z,6.07
2023-08-06T17:16:57.197Z,6.25
2023-08-06T17:19:24.915Z,6.40
2023-08-06T17:21:52.165Z,6.57
2023-08-06T17:24:19.639Z,6.45
2023-08-06T17:26:46.979Z,6.80
2023-08-06T17:29:14.303Z,6.82
2023-08-06T17:31:41.737Z,7.57
2023-08-06T17:34:09.015Z,8.43
2023-08-06T17:36:36.326Z,8.77
2023-08-06T17:39:03.633Z,8.73
2023-08-06T17:41:31.023Z,9.05
2023-08-06T17:43:58.396Z,9.02
2023-08-06T17:46:25.827Z,9.52
2023-08-06T17:48:57.786Z,9.10
2023-08-06T17:51:25.369Z,9.75
2023-08-06T17:53:52.702Z,9.10
2023-08-06T17:56:19.958Z,9.98
2023-08-06T17:58:47.270Z,11.23
2023-08-06T18:01:14.744Z,10.00
2023-08-06T18:03:42.324Z,10.13
2023-08-06T18:06:09.659Z,9.98
2023-08-06T18:08:36.911Z,10.35
2023-08-06T18:11:04.295Z,9.25
2023-08-06T18:13:31.647Z,8.93
2023-08-06T18:15:59.141Z,9.30
2023-08-06T18:18:26.598Z,8.98
2023-08-06T18:20:54.020Z,9.32
2023-08-06T18:23:21.407Z,8.57
2023-08-06T18:25:48.854Z,8.15
2023-08-06T18:28:16.190Z,8.43
2023-08-06T18:30:43.631Z,8.00
2023-08-06T18:33:11.148Z,7.43
2023-08-06T18:35:41.547Z,8.15
2023-08-06T18:38:09.447Z,11.38
2023-08-06T18:40:36.834Z,8.15
2023-08-06T18:43:04.170Z,9.40
2023-08-06T18:45:37.632Z,20.88
2023-08-06T18:48:05.057Z,8.88
2023-08-06T18:50:36.617Z,8.13
2023-08-06T18:53:05.049Z,7.53
2023-08-06T18:55:32.755Z,10.50
2023-08-06T18:58:04.154Z,10.73
2023-08-06T19:00:32.524Z,10.48
2023-08-06T19:02:59.828Z,8.45
2023-08-06T19:05:27.867Z,7.90
2023-08-06T19:07:55.106Z,8.52
2023-08-06T19:10:25.175Z,8.95
2023-08-06T19:12:53.137Z,8.68
2023-08-06T19:15:22.207Z,12.18
2023-08-06T19:17:49.767Z,10.18
2023-08-06T19:20:17.865Z,10.32
2023-08-06T19:22:47.271Z,9.50
2023-08-06T19:25:14.582Z,10.23
2023-08-06T19:27:42.517Z,9.77
2023-08-06T19:30:10.397Z,10.75
2023-08-06T19:32:37.901Z,9.60
2023-08-06T19:35:05.709Z,12.25
2023-08-06T19:37:34.136Z,10.73
2023-08-06T19:40:02.036Z,11.82
2023-08-06T19:42:29.742Z,11.13
2023-08-06T19:44:57.112Z,11.48
2023-08-06T19:47:24.438Z,11.13
2023-08-06T19:49:51.713Z,11.75
2023-08-06T19:52:19.065Z,11.27
2023-08-06T19:54:46.286Z,11.30
2023-08-06T19:57:13.644Z,11.75
2023-08-06T19:59:40.921Z,28.55
2023-08-06T20:02:08.173Z,15.45
2023-08-06T20:04:36.134Z,12.80
2023-08-06T20:07:03.897Z,11.48
2023-08-06T20:09:31.707Z,12.02
2023-08-06T20:12:04.163Z,12.88
2023-08-06T20:14:32.120Z,12.15
2023-08-06T20:16:59.387Z,11.50
2023-08-06T20:19:26.637Z,10.82
2023-08-06T20:21:54.362Z,10.63
2023-08-06T20:24:22.023Z,11.63
2023-08-06T20:26:49.314Z,11.20
2023-08-06T20:29:16.588Z,10.65
2023-08-06T20:31:43.877Z,10.65
2023-08-06T20:34:11.259Z,11.77
2023-08-06T20:36:38.518Z,10.93
2023-08-06T20:39:05.768Z,10.95
2023-08-06T20:41:33.134Z,10.15
2023-08-06T20:44:00.595Z,10.23
2023-08-06T20:46:27.922Z,10.35
2023-08-06T20:48:55.320Z,10.52
2023-08-06T20:51:22.743Z,10.90
2023-08-06T20:53:50.308Z,10.60
2023-08-06T20:56:18.975Z,10.82
2023-08-06T20:58:46.236Z,10.60
2023-08-06T21:01:13.616Z,11.07
2023-08-06T21:03:40.923Z,10.65
2023-08-06T21:06:08.763Z,10.23
2023-08-06T21:08:37.205Z,11.05
2023-08-06T21:11:05.284Z,10.52
2023-08-06T21:13:32.709Z,10.70
2023-08-06T21:16:04.695Z,10.48
2023-08-06T21:18:36.033Z,10.48
2023-08-06T21:21:05.067Z,12.00
2023-08-06T21:23:32.655Z,10.85
2023-08-06T21:26:00.840Z,13.35
2023-08-06T21:28:30.357Z,10.35
2023-08-06T21:31:02.586Z,10.45
2023-08-06T21:33:31.724Z,10.43
2023-08-06T21:36:02.869Z,9.80
2023-08-06T21:38:31.993Z,10.02
2023-08-06T21:41:08.765Z,10.65
2023-08-06T21:43:38.278Z,10.05
2023-08-06T21:46:08.669Z,11.43
2023-08-06T21:48:37.880Z,14.20
2023-08-06T21:51:07.501Z,10.30
2023-08-06T21:53:36.684Z,10.35
2023-08-06T21:56:06.533Z,16.42
2023-08-06T21:58:34.880Z,15.27
2023-08-06T22:01:03.778Z,11.02
2023-08-06T22:03:32.526Z,9.65
2023-08-06T22:06:00.275Z,10.57
2023-08-06T22:08:27.891Z,9.88
2023-08-06T22:10:58.636Z,10.23
2023-08-06T22:13:26.335Z,10.48
2023-08-06T22:15:54.044Z,9.85
2023-08-06T22:18:21.282Z,9.90
2023-08-06T22:20:49.360Z,9.60
2023-08-06T22:23:16.762Z,9.35
2023-08-06T22:25:43.971Z,9.43
2023-08-06T22:28:14.034Z,10.27
2023-08-06T22:30:41.778Z,10.02
2023-08-06T22:33:09.290Z,10.25
2023-08-06T22:35:36.654Z,9.05
2023-08-06T22:38:03.952Z,9.70
2023-08-06T22:40:31.392Z,9.88
2023-08-06T22:42:58.622Z,10.70
2023-08-06T22:45:25.911Z,10.55
2023-08-06T22:47:53.229Z,9.15
2023-08-06T22:50:20.613Z,9.70
2023-08-06T22:52:47.854Z,9.10
2023-08-06T22:55:28.875Z,9.68
2023-08-06T22:58:02.469Z,9.27
2023-08-06T23:00:29.901Z,9.52
2023-08-06T23:03:09.192Z,9.10
2023-08-06T23:05:39.072Z,8.48
2023-08-06T23:08:06.907Z,9.55
2023-08-06T23:10:34.758Z,9.32
2023-08-06T23:13:01.994Z,8.73
2023-08-06T23:15:29.422Z,8.95
2023-08-06T23:17:56.698Z,8.77
2023-08-06T23:20:24.054Z,8.88
2023-08-06T23:22:51.293Z,8.85
2023-08-06T23:25:18.544Z,8.88
2023-08-06T23:27:45.823Z,9.32
2023-08-06T23:30:13.439Z,8.45
2023-08-06T23:32:41.918Z,9.02
2023-08-06T23:35:10.101Z,8.07
2023-08-06T23:37:37.488Z,13.00
2023-08-06T23:40:06.189Z,8.25
2023-08-06T23:42:33.736Z,9.25
2023-08-06T23:45:00.957Z,8.98
2023-08-06T23:47:29.669Z,8.82
2023-08-06T23:49:57.117Z,8.80
2023-08-06T23:52:24.393Z,8.63
2023-08-06T23:54:51.755Z,8.48
2023-08-06T23:57:19.012Z,8.35
2023-08-06T23:59:46.194Z,8.07
